createdAt,value
2022-08-26T00:00:47.331Z,26.75
2022-08-26T00:03:09.437Z,23.20
2022-08-26T00:05:31.735Z,23.50
2022-08-26T00:07:54.014Z,25.77
2022-08-26T00:10:18.724Z,24.97
2022-08-26T00:12:41.230Z,22.75
2022-08-26T00:15:06.452Z,23.48
2022-08-26T00:17:28.326Z,23.35
2022-08-26T00:19:51.795Z,24.13
2022-08-26T00:22:20.158Z,21.33
2022-08-26T00:24:47.890Z,18.95
2022-08-26T00:27:10.132Z,20.08
2022-08-26T00:29:34.809Z,21.83
2022-08-26T00:31:57.710Z,22.52
2022-08-26T00:34:19.766Z,21.10
2022-08-26T00:36:41.635Z,19.13
2022-08-26T00:39:07.379Z,22.30
2022-08-26T00:41:29.460Z,20.75
2022-08-26T00:43:51.549Z,21.25
2022-08-26T00:46:25.601Z,16.83
2022-08-26T00:48:52.535Z,22.35
2022-08-26T00:51:23.143Z,21.90
2022-08-26T00:54:03.955Z,14.65
2022-08-26T00:56:36.301Z,19.73
2022-08-26T00:59:06.005Z,15.52
2022-08-26T01:01:28.418Z,15.63
2022-08-26T01:03:53.700Z,16.52
2022-08-26T01:06:17.857Z,14.15
2022-08-26T01:08:40.822Z,13.48
2022-08-26T01:11:04.781Z,14.10
2022-08-26T01:13:30.208Z,16.05
2022-08-26T01:15:57.413Z,10.48
2022-08-26T01:18:20.243Z,11.98
2022-08-26T01:20:57.708Z,10.40
2022-08-26T01:23:21.719Z,13.40
2022-08-26T01:25:55.989Z,13.38
2022-08-26T01:28:31.178Z,15.60
2022-08-26T01:30:56.512Z,12.02
2022-08-26T01:33:25.323Z,9.10
2022-08-26T01:35:48.250Z,10.60
2022-08-26T01:38:12.779Z,11.63
2022-08-26T01:40:38.743Z,11.45
2022-08-26T01:43:03.606Z,10.20
2022-08-26T01:45:31.543Z,11.43
2022-08-26T01:47:58.038Z,11.43
2022-08-26T01:50:31.805Z,11.70
2022-08-26T01:52:57.344Z,13.00
2022-08-26T01:55:32.187Z,9.45
2022-08-26T01:57:57.707Z,13.07
2022-08-26T02:00:19.578Z,8.98
2022-08-26T02:02:49.848Z,9.45
2022-08-26T02:05:18.331Z,11.15
2022-08-26T02:07:40.770Z,12.05
2022-08-26T02:10:04.549Z,11.27
2022-08-26T02:12:27.799Z,13.32
2022-08-26T02:14:55.732Z,12.55
2022-08-26T02:17:22.514Z,10.68
2022-08-26T02:19:49.690Z,12.68
2022-08-26T02:22:19.756Z,15.10
2022-08-26T02:24:47.311Z,10.35
2022-08-26T02:27:09.324Z,12.20
2022-08-26T02:29:41.573Z,11.02
2022-08-26T02:32:07.084Z,15.43
2022-08-26T02:34:33.383Z,14.98
2022-08-26T02:36:57.520Z,11.23
2022-08-26T02:39:22.237Z,14.75
2022-08-26T02:41:46.915Z,16.58
2022-08-26T02:44:10.000Z,13.73
2022-08-26T02:46:32.042Z,14.02
2022-08-26T02:48:54.052Z,12.70
2022-08-26T02:51:15.954Z,11.80
2022-08-26T02:53:37.811Z,14.82
2022-08-26T02:56:01.009Z,14.25
2022-08-26T02:58:23.470Z,10.57
2022-08-26T03:00:52.758Z,10.32
2022-08-26T03:03:15.826Z,10.10
2022-08-26T03:05:37.844Z,11.50
2022-08-26T03:08:00.999Z,10.05
2022-08-26T03:10:23.440Z,10.35
2022-08-26T03:12:48.638Z,13.25
2022-08-26T03:15:17.423Z,11.07
2022-08-26T03:17:40.804Z,11.18
2022-08-26T03:20:03.396Z,10.15
2022-08-26T03:22:27.018Z,8.90
2022-08-26T03:24:49.476Z,9.07
2022-08-26T03:27:11.417Z,8.45
2022-08-26T03:29:52.173Z,12.20
2022-08-26T03:32:16.901Z,10.60
2022-08-26T03:34:38.797Z,10.63
2022-08-26T03:37:01.353Z,9.27
2022-08-26T03:39:23.237Z,8.65
2022-08-26T03:41:45.274Z,8.15
2022-08-26T03:44:11.320Z,10.52
2022-08-26T03:46:34.134Z,12.73
2022-08-26T03:48:56.013Z,7.25
2022-08-26T03:51:19.832Z,8.93
2022-08-26T03:53:42.837Z,7.50
2022-08-26T03:56:06.533Z,8.32
2022-08-26T03:58:28.489Z,8.82
2022-08-26T04:00:55.397Z,10.57
2022-08-26T04:03:41.462Z,8.75
2022-08-26T04:06:03.885Z,8.95
2022-08-26T04:08:26.012Z,9.40
2022-08-26T04:10:49.992Z,8.05
2022-08-26T04:13:13.481Z,10.77
2022-08-26T04:15:35.480Z,7.95
2022-08-26T04:17:58.347Z,6.75
2022-08-26T04:20:20.248Z,8.85
2022-08-26T04:22:42.390Z,9.88
2022-08-26T04:25:04.785Z,7.05
2022-08-26T04:29:54.713Z,5.20
2022-08-26T04:32:17.679Z,7.82
2022-08-26T04:34:39.899Z,9.38
2022-08-26T04:37:01.731Z,7.28
2022-08-26T04:39:23.703Z,9.05
2022-08-26T04:41:49.137Z,7.78
2022-08-26T04:44:14.501Z,6.22
2022-08-26T04:46:36.671Z,8.45
2022-08-26T04:49:08.460Z,7.22
2022-08-26T04:51:30.280Z,7.15
2022-08-26T04:53:52.900Z,9.30
2022-08-26T04:56:15.549Z,6.80
2022-08-26T04:58:37.568Z,8.25
2022-08-26T05:00:59.869Z,8.02
2022-08-26T05:03:23.702Z,9.32
2022-08-26T05:05:49.644Z,9.38
2022-08-26T05:08:13.719Z,10.85
2022-08-26T05:10:41.060Z,8.40
2022-08-26T05:13:03.736Z,6.80
2022-08-26T05:15:32.587Z,11.27
2022-08-26T05:17:54.758Z,5.90
2022-08-26T05:20:16.614Z,6.88
2022-08-26T05:22:39.468Z,12.73
2022-08-26T05:25:01.476Z,8.38
2022-08-26T05:27:23.364Z,7.80
2022-08-26T05:29:45.360Z,5.00
2022-08-26T05:32:08.007Z,10.90
2022-08-26T05:34:30.266Z,7.65
2022-08-26T05:36:52.888Z,4.68
2022-08-26T05:39:15.087Z,7.90
2022-08-26T05:41:41.037Z,8.02
2022-08-26T05:44:07.379Z,5.03
2022-08-26T05:46:29.614Z,7.53
2022-08-26T05:48:51.736Z,10.77
2022-08-26T05:51:15.162Z,7.60
2022-08-26T05:53:43.948Z,5.33
2022-08-26T05:56:17.673Z,6.05
2022-08-26T05:58:42.254Z,8.50
2022-08-26T06:03:37.406Z,9.57
2022-08-26T06:05:59.700Z,9.23
2022-08-26T06:08:21.934Z,7.15
2022-08-26T06:10:56.435Z,5.65
2022-08-26T06:13:21.846Z,8.90
2022-08-26T06:15:48.792Z,6.07
2022-08-26T06:18:10.766Z,5.20
2022-08-26T06:20:32.802Z,10.10
2022-08-26T06:23:13.434Z,8.82
2022-08-26T06:25:39.438Z,5.57
2022-08-26T06:28:01.243Z,7.28
2022-08-26T06:30:24.833Z,7.85
2022-08-26T06:32:49.439Z,6.97
2022-08-26T06:35:12.419Z,6.25
2022-08-26T06:37:34.276Z,7.03
2022-08-26T06:39:56.901Z,4.10
2022-08-26T06:42:19.602Z,8.25
2022-08-26T06:44:41.692Z,5.00
2022-08-26T06:47:07.631Z,5.13
2022-08-26T06:49:30.341Z,8.33
2022-08-26T06:51:52.379Z,5.70
2022-08-26T06:54:14.332Z,6.57
2022-08-26T06:56:43.890Z,5.43
2022-08-26T06:59:07.789Z,5.55
2022-08-26T07:01:34.513Z,8.82
2022-08-26T07:04:00.467Z,9.02
2022-08-26T07:06:23.578Z,9.25
2022-08-26T07:08:50.798Z,4.78
2022-08-26T07:11:12.797Z,7.38
2022-08-26T07:13:37.670Z,6.18
2022-08-26T07:16:03.016Z,6.75
2022-08-26T07:18:25.091Z,5.97
2022-08-26T07:20:47.015Z,7.28
2022-08-26T07:23:11.833Z,7.43
2022-08-26T07:25:34.352Z,4.80
2022-08-26T07:27:57.049Z,6.18
2022-08-26T07:30:18.966Z,7.30
2022-08-26T07:32:41.863Z,8.45
2022-08-26T07:35:06.271Z,4.88
2022-08-26T07:37:28.464Z,8.82
2022-08-26T07:39:58.119Z,7.15
2022-08-26T07:42:20.484Z,5.25
2022-08-26T07:44:43.600Z,8.10
2022-08-26T07:47:10.540Z,9.38
2022-08-26T07:49:47.210Z,4.75
2022-08-26T07:52:14.544Z,7.20
2022-08-26T07:54:37.740Z,8.98
2022-08-26T07:56:59.890Z,5.88
2022-08-26T07:59:21.940Z,4.97
2022-08-26T08:01:46.758Z,5.63
2022-08-26T08:04:08.690Z,5.60
2022-08-26T08:06:33.152Z,7.07
2022-08-26T08:08:55.854Z,3.83
2022-08-26T08:11:22.920Z,6.38
2022-08-26T08:13:44.780Z,7.75
2022-08-26T08:16:12.495Z,5.65
2022-08-26T08:18:35.050Z,6.60
2022-08-26T08:21:10.818Z,7.53
2022-08-26T08:23:39.702Z,6.07
2022-08-26T08:26:10.140Z,7.07
2022-08-26T08:28:32.451Z,5.97
2022-08-26T08:30:54.397Z,7.65
2022-08-26T08:33:16.257Z,5.60
2022-08-26T08:35:42.356Z,9.27
2022-08-26T08:38:05.241Z,5.90
2022-08-26T08:40:29.505Z,6.80
2022-08-26T08:43:10.011Z,8.93
2022-08-26T08:45:38.372Z,8.50
2022-08-26T08:48:13.328Z,6.22
2022-08-26T08:50:47.555Z,6.28
2022-08-26T08:53:34.859Z,6.15
2022-08-26T08:56:27.030Z,8.90
2022-08-26T08:58:59.919Z,6.30
2022-08-26T09:01:42.106Z,9.48
2022-08-26T09:04:45.597Z,9.40
2022-08-26T09:07:36.517Z,7.60
2022-08-26T09:10:06.575Z,7.13
2022-08-26T09:12:32.978Z,5.47
2022-08-26T09:15:14.540Z,6.05
2022-08-26T09:17:53.277Z,7.47
2022-08-26T09:20:25.702Z,4.82
2022-08-26T09:22:47.512Z,8.38
2022-08-26T09:25:13.865Z,10.88
2022-08-26T09:27:50.343Z,6.45
2022-08-26T09:30:26.707Z,7.75
2022-08-26T09:33:09.999Z,6.68
2022-08-26T09:35:39.930Z,9.43
2022-08-26T09:38:19.807Z,8.73
2022-08-26T09:40:59.018Z,5.10
2022-08-26T09:43:22.790Z,8.05
2022-08-26T09:45:50.746Z,8.45
2022-08-26T09:48:32.327Z,7.20
2022-08-26T09:51:01.958Z,7.28
2022-08-26T09:53:31.715Z,14.27
2022-08-26T09:56:16.141Z,6.85
2022-08-26T09:58:47.154Z,8.00
2022-08-26T10:01:36.088Z,7.57
2022-08-26T10:04:21.792Z,6.88
2022-08-26T10:07:06.236Z,9.00
2022-08-26T10:09:40.727Z,7.15
2022-08-26T10:12:13.206Z,7.40
2022-08-26T10:17:32.806Z,9.60
2022-08-26T10:20:22.547Z,10.98
2022-08-26T10:22:59.930Z,10.93
2022-08-26T10:25:33.762Z,6.97
2022-08-26T10:28:46.745Z,7.82
2022-08-26T10:31:40.169Z,8.18
2022-08-26T10:34:02.925Z,7.40
2022-08-26T10:37:10.778Z,7.63
2022-08-26T10:39:56.944Z,7.93
2022-08-26T10:42:39.199Z,9.40
2022-08-26T10:45:19.843Z,7.80
2022-08-26T10:47:54.183Z,7.32
2022-08-26T10:50:18.187Z,7.20
2022-08-26T10:53:32.511Z,10.18
2022-08-26T10:56:18.867Z,6.43
2022-08-26T10:59:10.268Z,8.95
2022-08-26T11:02:07.267Z,5.72
2022-08-26T11:05:06.467Z,4.95
2022-08-26T11:07:39.880Z,7.13
2022-08-26T11:10:17.441Z,9.63
2022-08-26T11:12:39.281Z,9.13
2022-08-26T11:15:24.679Z,6.43
2022-08-26T11:17:47.056Z,8.07
2022-08-26T11:20:13.590Z,7.90
2022-08-26T11:22:45.450Z,6.97
2022-08-26T11:25:30.767Z,5.75
2022-08-26T11:27:59.849Z,4.90
2022-08-26T11:30:24.125Z,6.35
2022-08-26T11:32:56.095Z,6.13
2022-08-26T11:35:17.972Z,9.50
2022-08-26T11:37:40.494Z,7.22
2022-08-26T11:40:25.100Z,7.10
2022-08-26T11:42:52.336Z,8.48
2022-08-26T11:45:41.114Z,5.00
2022-08-26T11:48:30.738Z,4.78
2022-08-26T11:51:11.313Z,8.52
2022-08-26T11:53:41.289Z,5.93
2022-08-26T11:56:34.315Z,10.15
2022-08-26T11:59:03.047Z,8.82
2022-08-26T12:01:43.540Z,10.15
2022-08-26T12:04:10.824Z,6.10
2022-08-26T12:06:45.688Z,7.65
2022-08-26T12:11:48.233Z,6.68
2022-08-26T12:14:27.698Z,7.55
2022-08-26T12:16:51.881Z,7.05
2022-08-26T12:19:32.988Z,5.25
2022-08-26T12:22:06.561Z,5.90
2022-08-26T12:24:29.368Z,5.05
2022-08-26T12:27:15.836Z,5.55
2022-08-26T12:29:38.172Z,7.82
2022-08-26T12:32:14.052Z,8.03
2022-08-26T12:34:36.407Z,8.70
2022-08-26T12:39:26.846Z,5.53
2022-08-26T12:41:53.675Z,6.63
2022-08-26T12:44:59.572Z,6.10
2022-08-26T12:47:43.038Z,5.22
2022-08-26T12:50:17.566Z,6.60
2022-08-26T12:53:01.507Z,3.97
2022-08-26T12:56:00.313Z,3.63
2022-08-26T12:58:35.980Z,5.95
2022-08-26T13:01:22.546Z,8.05
2022-08-26T13:03:46.696Z,4.45
2022-08-26T13:06:30.023Z,4.53
2022-08-26T13:08:56.941Z,6.40
2022-08-26T13:11:32.459Z,6.60
2022-08-26T13:14:24.332Z,8.48
2022-08-26T13:16:47.372Z,5.68
2022-08-26T13:19:15.295Z,4.05
2022-08-26T13:21:59.597Z,4.53
2022-08-26T13:24:57.216Z,4.63
2022-08-26T13:27:21.975Z,6.55
2022-08-26T13:29:43.918Z,3.58
2022-08-26T13:32:07.944Z,5.35
2022-08-26T13:34:31.473Z,4.57
2022-08-26T13:36:56.484Z,6.20
2022-08-26T13:39:18.789Z,8.70
2022-08-26T13:41:40.995Z,5.22
2022-08-26T13:44:03.895Z,6.28
2022-08-26T13:46:27.374Z,6.13
2022-08-26T13:48:49.243Z,4.83
2022-08-26T13:51:11.185Z,4.55
2022-08-26T13:53:33.229Z,5.03
2022-08-26T13:55:55.096Z,5.38
2022-08-26T13:58:17.273Z,5.78
2022-08-26T14:00:41.812Z,8.00
2022-08-26T14:03:07.287Z,4.15
2022-08-26T14:05:33.233Z,8.13
2022-08-26T14:07:57.232Z,5.50
2022-08-26T14:10:20.569Z,4.13
2022-08-26T14:12:45.507Z,6.57
2022-08-26T14:15:08.546Z,4.30
2022-08-26T14:17:31.245Z,4.25
2022-08-26T14:19:54.233Z,3.65
2022-08-26T14:22:19.785Z,4.35
2022-08-26T14:24:41.780Z,5.43
2022-08-26T14:27:03.945Z,6.60
2022-08-26T14:29:26.548Z,4.25
2022-08-26T14:31:48.609Z,6.80
2022-08-26T14:34:13.888Z,3.25
2022-08-26T16:01:55.697Z,5.47
2022-08-26T16:04:18.746Z,3.92
2022-08-26T16:06:43.426Z,4.32
2022-08-26T16:09:07.108Z,5.30
2022-08-26T16:11:29.372Z,5.22
2022-08-26T16:13:51.374Z,5.88
2022-08-26T16:16:13.864Z,4.57
2022-08-26T16:18:36.921Z,2.97
2022-08-26T16:21:13.784Z,4.13
2022-08-26T16:23:36.533Z,4.55
2022-08-26T16:25:59.099Z,5.95
2022-08-26T16:28:26.163Z,3.72
2022-08-26T16:30:49.031Z,4.28
2022-08-26T16:33:15.306Z,5.78
2022-08-26T16:38:18.355Z,5.75
2022-08-26T16:40:40.583Z,4.28
2022-08-26T16:43:04.604Z,7.13
2022-08-26T16:45:27.015Z,3.28
2022-08-26T16:47:50.079Z,3.00
2022-08-26T16:50:13.156Z,4.13
2022-08-26T16:52:39.778Z,4.20
2022-08-26T16:55:01.935Z,3.55
2022-08-26T16:57:25.450Z,6.57
2022-08-26T16:59:47.597Z,4.00
2022-08-26T17:02:11.888Z,3.05
2022-08-26T17:04:33.923Z,4.85
2022-08-26T17:06:55.805Z,5.00
2022-08-26T17:09:17.823Z,6.38
2022-08-26T17:11:39.900Z,4.25
2022-08-26T17:14:01.973Z,4.97
2022-08-26T17:16:26.890Z,4.35
2022-08-26T17:18:49.153Z,3.15
2022-08-26T17:21:13.868Z,3.63
2022-08-26T17:23:37.581Z,3.25
2022-08-26T17:25:59.494Z,5.82
2022-08-26T17:28:21.418Z,2.65
2022-08-26T17:30:44.297Z,2.63
2022-08-26T17:33:10.737Z,3.72
2022-08-26T17:35:33.600Z,4.30
2022-08-26T17:37:56.589Z,5.55
2022-08-26T17:40:22.193Z,5.18
2022-08-26T17:42:45.839Z,5.15
2022-08-26T17:45:09.927Z,3.70
2022-08-26T17:47:32.900Z,3.40
2022-08-26T17:49:54.812Z,4.75
2022-08-26T17:52:16.749Z,6.28
2022-08-26T17:54:38.671Z,4.57
2022-08-26T17:57:00.528Z,5.35
2022-08-26T17:59:23.333Z,3.80
2022-08-26T18:01:54.653Z,4.85
2022-08-26T18:04:16.743Z,7.32
2022-08-26T18:06:39.379Z,6.22
2022-08-26T18:09:01.286Z,6.40
2022-08-26T18:11:24.507Z,5.32
2022-08-26T18:13:47.905Z,7.47
2022-08-26T18:16:11.213Z,6.15
2022-08-26T18:18:33.947Z,2.92
2022-08-26T18:21:01.701Z,8.55
2022-08-26T18:23:24.604Z,6.60
2022-08-26T18:25:48.611Z,5.82
2022-08-26T18:28:10.807Z,5.25
2022-08-26T18:30:32.895Z,4.25
2022-08-26T18:32:54.780Z,2.78
2022-08-26T18:35:17.119Z,5.65
2022-08-26T18:37:40.368Z,5.80
2022-08-26T18:40:02.535Z,7.53
2022-08-26T18:42:26.789Z,3.72
2022-08-26T18:44:51.145Z,4.80
2022-08-26T18:47:13.159Z,4.30
2022-08-26T18:49:35.297Z,4.75
2022-08-26T18:51:57.183Z,6.28
2022-08-26T18:56:47.995Z,5.82
2022-08-26T18:59:11.520Z,5.20
2022-08-26T19:01:35.735Z,5.85
2022-08-26T19:04:00.274Z,7.53
2022-08-26T19:08:49.952Z,4.68
2022-08-26T19:11:14.347Z,6.57
2022-08-26T19:13:37.518Z,3.00
2022-08-26T19:15:59.346Z,5.82
2022-08-26T19:18:21.467Z,6.82
2022-08-26T19:20:46.832Z,9.55
2022-08-26T19:23:28.146Z,4.68
2022-08-26T19:25:53.455Z,7.00
2022-08-26T19:28:18.472Z,7.55
2022-08-26T19:30:43.948Z,4.45
2022-08-26T19:33:07.309Z,7.07
2022-08-26T19:35:29.152Z,3.80
2022-08-26T19:37:52.365Z,5.35
2022-08-26T19:40:14.486Z,6.72
2022-08-26T19:42:36.716Z,3.80
2022-08-26T19:45:07.549Z,5.47
2022-08-26T19:47:39.841Z,4.45
2022-08-26T19:50:07.660Z,7.25
2022-08-26T19:52:30.358Z,6.15
2022-08-26T19:54:52.230Z,4.75
2022-08-26T19:57:14.296Z,5.13
2022-08-26T19:59:36.452Z,7.07
2022-08-26T20:02:01.003Z,7.03
2022-08-26T20:04:23.620Z,6.68
2022-08-26T20:06:45.516Z,6.38
2022-08-26T20:09:10.740Z,7.15
2022-08-26T20:11:32.832Z,3.67
2022-08-26T20:13:55.336Z,4.22
2022-08-26T20:16:18.373Z,5.90
2022-08-26T20:19:00.670Z,4.88
2022-08-26T20:21:28.406Z,7.22
2022-08-26T20:23:51.397Z,6.65
2022-08-26T20:26:13.269Z,6.03
2022-08-26T20:28:35.407Z,7.80
2022-08-26T20:30:57.470Z,4.50
2022-08-26T20:33:19.636Z,3.97
2022-08-26T20:35:41.444Z,5.18
2022-08-26T20:38:03.360Z,4.72
2022-08-26T20:40:25.467Z,8.18
2022-08-26T20:42:47.382Z,6.88
2022-08-26T20:45:10.146Z,6.50
2022-08-26T20:47:32.196Z,10.52
2022-08-26T20:49:54.438Z,7.55
2022-08-26T20:52:16.395Z,5.53
2022-08-26T20:54:38.512Z,7.57
2022-08-26T20:57:00.347Z,7.70
2022-08-26T20:59:22.366Z,6.45
2022-08-26T21:01:44.780Z,3.42
2022-08-26T21:04:14.160Z,6.68
2022-08-26T21:06:36.379Z,5.40
2022-08-26T21:08:58.361Z,4.00
2022-08-26T21:11:21.033Z,4.60
2022-08-26T21:14:03.807Z,4.22
2022-08-26T21:16:25.672Z,7.28
2022-08-26T21:18:47.826Z,6.00
2022-08-26T21:21:10.220Z,4.63
2022-08-26T21:23:32.154Z,7.60
2022-08-26T21:25:54.107Z,4.18
2022-08-26T21:28:16.822Z,4.63
2022-08-26T21:30:40.662Z,5.15
2022-08-26T21:33:02.526Z,6.20
2022-08-26T21:35:24.489Z,3.22
2022-08-26T21:37:46.535Z,4.20
2022-08-26T21:40:10.507Z,4.70
2022-08-26T21:42:35.197Z,5.38
2022-08-26T21:44:57.464Z,4.25
2022-08-26T21:47:22.339Z,4.63
2022-08-26T21:49:44.223Z,5.45
2022-08-26T21:52:06.734Z,5.40
2022-08-26T21:54:29.027Z,4.90
2022-08-26T21:56:50.838Z,4.68
2022-08-26T21:59:15.597Z,4.05
2022-08-26T22:01:38.086Z,6.68
2022-08-26T22:04:05.808Z,6.47
2022-08-26T22:06:29.681Z,3.72
2022-08-26T22:08:53.491Z,3.08
2022-08-26T22:11:15.835Z,4.57
2022-08-26T22:13:40.938Z,3.70
2022-08-26T22:16:03.580Z,7.10
2022-08-26T22:18:28.518Z,4.30
2022-08-26T22:20:52.745Z,5.07
2022-08-26T22:23:14.579Z,3.60
2022-08-26T22:25:37.232Z,7.70
2022-08-26T22:27:59.685Z,3.88
2022-08-26T22:30:21.742Z,5.80
2022-08-26T22:32:45.669Z,4.80
2022-08-26T22:35:28.253Z,4.97
2022-08-26T22:37:50.131Z,4.60
2022-08-26T22:40:13.867Z,3.97
2022-08-26T22:42:35.822Z,5.43
2022-08-26T22:44:57.662Z,6.80
2022-08-26T22:47:19.612Z,2.93
2022-08-26T22:49:41.490Z,2.93
2022-08-26T22:52:03.813Z,4.83
2022-08-26T22:54:25.601Z,4.13
2022-08-26T22:56:47.644Z,2.80
2022-08-26T22:59:10.973Z,4.37
2022-08-26T23:01:41.362Z,6.07
2022-08-26T23:04:06.401Z,4.30
2022-08-26T23:06:28.272Z,3.20
2022-08-26T23:08:50.304Z,4.57
2022-08-26T23:11:14.969Z,5.53
2022-08-26T23:13:37.384Z,7.60
2022-08-26T23:16:02.360Z,4.43
2022-08-26T23:18:24.147Z,2.53
2022-08-26T23:20:47.088Z,5.87
2022-08-26T23:23:09.530Z,5.67
2022-08-26T23:25:32.504Z,4.57
2022-08-26T23:27:54.516Z,6.03
2022-08-26T23:30:24.218Z,4.13
2022-08-26T23:32:47.296Z,5.37
2022-08-26T23:35:11.537Z,3.40
2022-08-26T23:37:40.324Z,5.03
2022-08-26T23:40:08.237Z,4.77
2022-08-26T23:42:30.668Z,5.40
2022-08-26T23:44:52.589Z,7.17
2022-08-26T23:47:15.430Z,5.43
2022-08-26T23:49:37.436Z,5.30
2022-08-26T23:52:17.715Z,6.00
2022-08-26T23:54:40.545Z,4.80
2022-08-26T23:57:02.774Z,4.87
2022-08-26T23:59:25.072Z,5.23
